sensor_id;sensor_type;location;lat;lon;timestamp;P1;durP1;ratioP1;P2;durP2;ratioP2
9771;SDS011;4925;52.588;13.370;2024-03-08T00:00:40;20.20;;;13.00;;
9771;SDS011;4925;52.588;13.370;2024-03-08T00:03:08;24.97;;;13.83;;
9771;SDS011;4925;52.588;13.370;2024-03-08T00:05:35;20.60;;;12.80;;
9771;SDS011;4925;52.588;13.370;2024-03-08T00:08:01;21.50;;;13.23;;
9771;SDS011;4925;52.588;13.370;2024-03-08T00:10:27;22.57;;;13.80;;
9771;SDS011;4925;52.588;13.370;2024-03-08T00:12:54;21.53;;;13.07;;
9771;SDS011;4925;52.588;13.370;2024-03-08T00:15:21;23.17;;;14.40;;
9771;SDS011;4925;52.588;13.370;2024-03-08T00:17:48;20.73;;;13.47;;
9771;SDS011;4925;52.588;13.370;2024-03-08T00:20:14;24.47;;;13.53;;
9771;SDS011;4925;52.588;13.370;2024-03-08T00:22:40;22.80;;;14.10;;
9771;SDS011;4925;52.588;13.370;2024-03-08T00:25:06;19.63;;;13.30;;
9771;SDS011;4925;52.588;13.370;2024-03-08T00:27:35;24.73;;;14.13;;
9771;SDS011;4925;52.588;13.370;2024-03-08T00:30:02;19.80;;;12.50;;
9771;SDS011;4925;52.588;13.370;2024-03-08T00:32:28;20.60;;;11.97;;
9771;SDS011;4925;52.588;13.370;2024-03-08T00:34:54;23.97;;;13.30;;
9771;SDS011;4925;52.588;13.370;2024-03-08T00:37:23;22.37;;;13.23;;
9771;SDS011;4925;52.588;13.370;2024-03-08T00:39:49;21.80;;;13.50;;
9771;SDS011;4925;52.588;13.370;2024-03-08T00:42:15;18.87;;;11.93;;
9771;SDS011;4925;52.588;13.370;2024-03-08T00:44:44;23.97;;;14.30;;
9771;SDS011;4925;52.588;13.370;2024-03-08T00:47:13;19.67;;;13.53;;
9771;SDS011;4925;52.588;13.370;2024-03-08T00:49:40;26.60;;;13.73;;
9771;SDS011;4925;52.588;13.370;2024-03-08T00:52:06;23.43;;;14.40;;
9771;SDS011;4925;52.588;13.370;2024-03-08T00:54:33;21.40;;;12.80;;
9771;SDS011;4925;52.588;13.370;2024-03-08T00:57:00;19.30;;;11.97;;
9771;SDS011;4925;52.588;13.370;2024-03-08T00:59:28;20.43;;;12.47;;
9771;SDS011;4925;52.588;13.370;2024-03-08T01:01:57;23.73;;;12.93;;
9771;SDS011;4925;52.588;13.370;2024-03-08T01:04:26;20.83;;;12.70;;
9771;SDS011;4925;52.588;13.370;2024-03-08T01:06:58;18.77;;;13.17;;
9771;SDS011;4925;52.588;13.370;2024-03-08T01:09:24;18.43;;;12.23;;
9771;SDS011;4925;52.588;13.370;2024-03-08T01:11:51;23.00;;;13.33;;
9771;SDS011;4925;52.588;13.370;2024-03-08T01:14:19;18.87;;;12.50;;
9771;SDS011;4925;52.588;13.370;2024-03-08T01:16:47;19.00;;;12.17;;
9771;SDS011;4925;52.588;13.370;2024-03-08T01:19:13;20.33;;;11.73;;
9771;SDS011;4925;52.588;13.370;2024-03-08T01:21:39;22.23;;;12.73;;
9771;SDS011;4925;52.588;13.370;2024-03-08T01:24:04;19.57;;;12.60;;
9771;SDS011;4925;52.588;13.370;2024-03-08T01:26:30;20.23;;;12.30;;
9771;SDS011;4925;52.588;13.370;2024-03-08T01:28:56;19.80;;;12.13;;
9771;SDS011;4925;52.588;13.370;2024-03-08T01:31:22;15.60;;;10.97;;
9771;SDS011;4925;52.588;13.370;2024-03-08T01:33:49;20.27;;;12.07;;
9771;SDS011;4925;52.588;13.370;2024-03-08T01:36:15;18.97;;;12.73;;
9771;SDS011;4925;52.588;13.370;2024-03-08T01:38:42;19.57;;;11.63;;
9771;SDS011;4925;52.588;13.370;2024-03-08T01:41:07;20.03;;;11.83;;
9771;SDS011;4925;52.588;13.370;2024-03-08T01:43:34;20.57;;;11.73;;
9771;SDS011;4925;52.588;13.370;2024-03-08T01:46:00;20.70;;;12.80;;
9771;SDS011;4925;52.588;13.370;2024-03-08T01:48:28;18.17;;;11.47;;
9771;SDS011;4925;52.588;13.370;2024-03-08T01:50:55;20.87;;;12.07;;
9771;SDS011;4925;52.588;13.370;2024-03-08T01:53:22;22.43;;;13.87;;
9771;SDS011;4925;52.588;13.370;2024-03-08T01:55:50;19.20;;;11.83;;
9771;SDS011;4925;52.588;13.370;2024-03-08T01:58:19;20.83;;;12.53;;
9771;SDS011;4925;52.588;13.370;2024-03-08T02:00:47;19.53;;;12.73;;
9771;SDS011;4925;52.588;13.370;2024-03-08T02:03:17;20.23;;;12.13;;
9771;SDS011;4925;52.588;13.370;2024-03-08T02:05:43;19.90;;;12.23;;
9771;SDS011;4925;52.588;13.370;2024-03-08T02:08:09;24.17;;;12.93;;
9771;SDS011;4925;52.588;13.370;2024-03-08T02:10:43;17.77;;;11.27;;
9771;SDS011;4925;52.588;13.370;2024-03-08T02:13:09;20.63;;;12.37;;
9771;SDS011;4925;52.588;13.370;2024-03-08T02:15:54;19.57;;;12.47;;
9771;SDS011;4925;52.588;13.370;2024-03-08T02:18:22;19.07;;;11.40;;
9771;SDS011;4925;52.588;13.370;2024-03-08T02:23:18;17.33;;;12.27;;
9771;SDS011;4925;52.588;13.370;2024-03-08T02:25:48;21.77;;;11.87;;
9771;SDS011;4925;52.588;13.370;2024-03-08T02:28:14;19.93;;;11.50;;
9771;SDS011;4925;52.588;13.370;2024-03-08T02:30:41;19.10;;;11.70;;
9771;SDS011;4925;52.588;13.370;2024-03-08T02:33:07;18.83;;;11.30;;
9771;SDS011;4925;52.588;13.370;2024-03-08T02:35:38;20.60;;;11.93;;
9771;SDS011;4925;52.588;13.370;2024-03-08T02:38:03;19.67;;;11.20;;
9771;SDS011;4925;52.588;13.370;2024-03-08T02:40:29;17.63;;;10.87;;
9771;SDS011;4925;52.588;13.370;2024-03-08T02:42:55;23.03;;;11.50;;
9771;SDS011;4925;52.588;13.370;2024-03-08T02:45:21;21.47;;;12.53;;
9771;SDS011;4925;52.588;13.370;2024-03-08T02:47:46;19.80;;;12.00;;
9771;SDS011;4925;52.588;13.370;2024-03-08T02:50:15;20.13;;;12.37;;
9771;SDS011;4925;52.588;13.370;2024-03-08T02:52:41;19.10;;;10.57;;
9771;SDS011;4925;52.588;13.370;2024-03-08T02:55:11;16.93;;;11.50;;
9771;SDS011;4925;52.588;13.370;2024-03-08T02:57:40;20.73;;;12.10;;
9771;SDS011;4925;52.588;13.370;2024-03-08T03:00:07;20.83;;;12.37;;
9771;SDS011;4925;52.588;13.370;2024-03-08T03:02:35;20.40;;;11.60;;
9771;SDS011;4925;52.588;13.370;2024-03-08T03:05:02;18.70;;;10.93;;
9771;SDS011;4925;52.588;13.370;2024-03-08T03:07:31;18.93;;;11.70;;
9771;SDS011;4925;52.588;13.370;2024-03-08T03:10:01;21.03;;;12.60;;
9771;SDS011;4925;52.588;13.370;2024-03-08T03:12:30;18.70;;;11.77;;
9771;SDS011;4925;52.588;13.370;2024-03-08T03:14:57;20.07;;;12.37;;
9771;SDS011;4925;52.588;13.370;2024-03-08T03:17:23;19.53;;;12.53;;
9771;SDS011;4925;52.588;13.370;2024-03-08T03:19:50;22.20;;;12.37;;
9771;SDS011;4925;52.588;13.370;2024-03-08T03:22:22;22.70;;;11.83;;
9771;SDS011;4925;52.588;13.370;2024-03-08T03:24:48;19.93;;;12.37;;
9771;SDS011;4925;52.588;13.370;2024-03-08T03:27:16;19.30;;;11.93;;
9771;SDS011;4925;52.588;13.370;2024-03-08T03:29:42;22.03;;;12.27;;
9771;SDS011;4925;52.588;13.370;2024-03-08T03:32:12;19.57;;;13.10;;
9771;SDS011;4925;52.588;13.370;2024-03-08T03:34:38;19.10;;;11.03;;
9771;SDS011;4925;52.588;13.370;2024-03-08T03:37:04;22.57;;;12.20;;
9771;SDS011;4925;52.588;13.370;2024-03-08T03:39:33;22.77;;;12.67;;
9771;SDS011;4925;52.588;13.370;2024-03-08T03:41:59;23.77;;;13.00;;
9771;SDS011;4925;52.588;13.370;2024-03-08T03:44:27;20.80;;;12.33;;
9771;SDS011;4925;52.588;13.370;2024-03-08T03:46:53;24.20;;;12.90;;
9771;SDS011;4925;52.588;13.370;2024-03-08T03:49:19;20.70;;;12.83;;
9771;SDS011;4925;52.588;13.370;2024-03-08T03:51:46;19.10;;;12.30;;
9771;SDS011;4925;52.588;13.370;2024-03-08T03:54:12;24.03;;;12.60;;
9771;SDS011;4925;52.588;13.370;2024-03-08T03:56:38;21.97;;;13.10;;
9771;SDS011;4925;52.588;13.370;2024-03-08T03:59:07;18.30;;;11.83;;
9771;SDS011;4925;52.588;13.370;2024-03-08T04:01:33;18.00;;;11.73;;
9771;SDS011;4925;52.588;13.370;2024-03-08T04:03:59;22.47;;;12.83;;
9771;SDS011;4925;52.588;13.370;2024-03-08T04:06:26;20.87;;;13.27;;
9771;SDS011;4925;52.588;13.370;2024-03-08T04:08:51;18.80;;;12.73;;
9771;SDS011;4925;52.588;13.370;2024-03-08T04:11:17;19.87;;;12.90;;
9771;SDS011;4925;52.588;13.370;2024-03-08T04:13:43;18.60;;;11.77;;
9771;SDS011;4925;52.588;13.370;2024-03-08T04:16:08;23.47;;;13.33;;
9771;SDS011;4925;52.588;13.370;2024-03-08T04:18:36;22.13;;;13.37;;
9771;SDS011;4925;52.588;13.370;2024-03-08T04:21:03;22.73;;;12.57;;
9771;SDS011;4925;52.588;13.370;2024-03-08T04:23:31;24.03;;;12.60;;
9771;SDS011;4925;52.588;13.370;2024-03-08T04:26:01;19.80;;;12.87;;
9771;SDS011;4925;52.588;13.370;2024-03-08T04:28:28;20.77;;;13.30;;
9771;SDS011;4925;52.588;13.370;2024-03-08T04:30:54;18.27;;;12.27;;
9771;SDS011;4925;52.588;13.370;2024-03-08T04:33:21;22.83;;;12.93;;
9771;SDS011;4925;52.588;13.370;2024-03-08T04:35:48;22.10;;;13.60;;
9771;SDS011;4925;52.588;13.370;2024-03-08T04:38:15;23.97;;;15.10;;
9771;SDS011;4925;52.588;13.370;2024-03-08T04:40:41;29.73;;;17.17;;
9771;SDS011;4925;52.588;13.370;2024-03-08T04:43:08;24.83;;;15.43;;
9771;SDS011;4925;52.588;13.370;2024-03-08T04:45:35;24.17;;;14.33;;
9771;SDS011;4925;52.588;13.370;2024-03-08T04:48:02;22.93;;;13.70;;
9771;SDS011;4925;52.588;13.370;2024-03-08T04:50:27;22.07;;;13.37;;
9771;SDS011;4925;52.588;13.370;2024-03-08T04:52:54;27.07;;;15.20;;
9771;SDS011;4925;52.588;13.370;2024-03-08T04:55:20;23.63;;;13.97;;
9771;SDS011;4925;52.588;13.370;2024-03-08T04:57:47;24.63;;;13.57;;
9771;SDS011;4925;52.588;13.370;2024-03-08T05:00:13;22.37;;;13.57;;
9771;SDS011;4925;52.588;13.370;2024-03-08T05:02:41;20.37;;;12.80;;
9771;SDS011;4925;52.588;13.370;2024-03-08T05:05:10;20.03;;;12.67;;
9771;SDS011;4925;52.588;13.370;2024-03-08T05:07:39;21.07;;;11.80;;
9771;SDS011;4925;52.588;13.370;2024-03-08T05:10:05;23.50;;;13.60;;
9771;SDS011;4925;52.588;13.370;2024-03-08T05:12:32;23.47;;;14.13;;
9771;SDS011;4925;52.588;13.370;2024-03-08T05:14:58;23.60;;;13.20;;
9771;SDS011;4925;52.588;13.370;2024-03-08T05:17:24;22.17;;;13.30;;
9771;SDS011;4925;52.588;13.370;2024-03-08T05:19:50;20.67;;;13.77;;
9771;SDS011;4925;52.588;13.370;2024-03-08T05:22:16;24.77;;;14.57;;
9771;SDS011;4925;52.588;13.370;2024-03-08T05:24:43;22.07;;;13.50;;
9771;SDS011;4925;52.588;13.370;2024-03-08T05:27:09;24.80;;;13.33;;
9771;SDS011;4925;52.588;13.370;2024-03-08T05:29:35;23.80;;;14.40;;
9771;SDS011;4925;52.588;13.370;2024-03-08T05:32:00;24.47;;;14.03;;
9771;SDS011;4925;52.588;13.370;2024-03-08T05:34:27;23.73;;;14.37;;
9771;SDS011;4925;52.588;13.370;2024-03-08T05:36:56;25.43;;;15.20;;
9771;SDS011;4925;52.588;13.370;2024-03-08T05:39:23;24.30;;;14.13;;
9771;SDS011;4925;52.588;13.370;2024-03-08T05:41:49;22.77;;;14.10;;
9771;SDS011;4925;52.588;13.370;2024-03-08T05:44:16;26.03;;;14.63;;
9771;SDS011;4925;52.588;13.370;2024-03-08T05:46:44;25.70;;;15.77;;
9771;SDS011;4925;52.588;13.370;2024-03-08T05:49:11;22.47;;;14.27;;
9771;SDS011;4925;52.588;13.370;2024-03-08T05:51:39;23.23;;;13.43;;
9771;SDS011;4925;52.588;13.370;2024-03-08T05:54:06;21.13;;;14.03;;
9771;SDS011;4925;52.588;13.370;2024-03-08T05:56:35;23.30;;;13.97;;
9771;SDS011;4925;52.588;13.370;2024-03-08T05:59:01;24.73;;;14.17;;
9771;SDS011;4925;52.588;13.370;2024-03-08T06:01:27;23.73;;;14.00;;
9771;SDS011;4925;52.588;13.370;2024-03-08T06:03:54;27.03;;;15.07;;
9771;SDS011;4925;52.588;13.370;2024-03-08T06:06:21;22.83;;;15.20;;
9771;SDS011;4925;52.588;13.370;2024-03-08T06:08:48;23.63;;;14.60;;
9771;SDS011;4925;52.588;13.370;2024-03-08T06:11:15;26.13;;;15.20;;
9771;SDS011;4925;52.588;13.370;2024-03-08T06:13:44;24.20;;;14.80;;
9771;SDS011;4925;52.588;13.370;2024-03-08T06:16:11;24.37;;;14.30;;
9771;SDS011;4925;52.588;13.370;2024-03-08T06:18:37;24.07;;;14.93;;
9771;SDS011;4925;52.588;13.370;2024-03-08T06:21:04;25.17;;;14.53;;
9771;SDS011;4925;52.588;13.370;2024-03-08T06:23:34;23.80;;;14.30;;
9771;SDS011;4925;52.588;13.370;2024-03-08T06:26:03;29.23;;;15.10;;
9771;SDS011;4925;52.588;13.370;2024-03-08T06:28:29;24.43;;;14.43;;
9771;SDS011;4925;52.588;13.370;2024-03-08T06:30:55;25.37;;;14.73;;
9771;SDS011;4925;52.588;13.370;2024-03-08T06:33:21;23.57;;;14.80;;
9771;SDS011;4925;52.588;13.370;2024-03-08T06:35:47;24.67;;;14.63;;
9771;SDS011;4925;52.588;13.370;2024-03-08T06:38:13;24.83;;;15.03;;
9771;SDS011;4925;52.588;13.370;2024-03-08T06:40:42;28.40;;;15.40;;
9771;SDS011;4925;52.588;13.370;2024-03-08T06:43:09;27.27;;;15.13;;
9771;SDS011;4925;52.588;13.370;2024-03-08T06:45:36;33.00;;;15.37;;
9771;SDS011;4925;52.588;13.370;2024-03-08T06:48:03;23.07;;;15.07;;
9771;SDS011;4925;52.588;13.370;2024-03-08T06:50:29;23.00;;;14.80;;
9771;SDS011;4925;52.588;13.370;2024-03-08T06:52:57;29.90;;;15.57;;
9771;SDS011;4925;52.588;13.370;2024-03-08T06:55:22;27.93;;;16.00;;
9771;SDS011;4925;52.588;13.370;2024-03-08T06:57:48;28.70;;;16.13;;
9771;SDS011;4925;52.588;13.370;2024-03-08T07:00:14;27.03;;;16.60;;
9771;SDS011;4925;52.588;13.370;2024-03-08T07:02:44;29.37;;;15.67;;
9771;SDS011;4925;52.588;13.370;2024-03-08T07:05:14;26.07;;;15.50;;
9771;SDS011;4925;52.588;13.370;2024-03-08T07:07:41;27.70;;;15.60;;
9771;SDS011;4925;52.588;13.370;2024-03-08T07:10:08;27.60;;;16.83;;
9771;SDS011;4925;52.588;13.370;2024-03-08T07:12:36;31.53;;;17.23;;
9771;SDS011;4925;52.588;13.370;2024-03-08T07:15:04;31.47;;;16.73;;
9771;SDS011;4925;52.588;13.370;2024-03-08T07:17:31;26.43;;;16.27;;
9771;SDS011;4925;52.588;13.370;2024-03-08T07:20:00;30.13;;;16.43;;
9771;SDS011;4925;52.588;13.370;2024-03-08T07:22:32;28.00;;;17.33;;
9771;SDS011;4925;52.588;13.370;2024-03-08T07:24:58;27.80;;;17.13;;
9771;SDS011;4925;52.588;13.370;2024-03-08T07:27:32;28.57;;;16.53;;
9771;SDS011;4925;52.588;13.370;2024-03-08T07:30:01;30.80;;;16.47;;
9771;SDS011;4925;52.588;13.370;2024-03-08T07:32:27;28.47;;;17.10;;
9771;SDS011;4925;52.588;13.370;2024-03-08T07:34:55;28.33;;;16.60;;
9771;SDS011;4925;52.588;13.370;2024-03-08T07:37:21;29.13;;;16.93;;
9771;SDS011;4925;52.588;13.370;2024-03-08T07:39:47;32.00;;;17.73;;
9771;SDS011;4925;52.588;13.370;2024-03-08T07:42:12;27.20;;;17.07;;
9771;SDS011;4925;52.588;13.370;2024-03-08T07:44:38;30.47;;;16.20;;
9771;SDS011;4925;52.588;13.370;2024-03-08T07:47:05;29.87;;;17.80;;
9771;SDS011;4925;52.588;13.370;2024-03-08T07:49:34;27.90;;;17.27;;
9771;SDS011;4925;52.588;13.370;2024-03-08T07:52:00;26.93;;;17.20;;
9771;SDS011;4925;52.588;13.370;2024-03-08T07:54:25;24.23;;;16.17;;
9771;SDS011;4925;52.588;13.370;2024-03-08T07:56:51;31.67;;;17.73;;
9771;SDS011;4925;52.588;13.370;2024-03-08T07:59:18;28.57;;;16.80;;
9771;SDS011;4925;52.588;13.370;2024-03-08T08:01:46;28.87;;;16.30;;
9771;SDS011;4925;52.588;13.370;2024-03-08T08:04:12;27.40;;;16.77;;
9771;SDS011;4925;52.588;13.370;2024-03-08T08:06:39;29.53;;;17.80;;
9771;SDS011;4925;52.588;13.370;2024-03-08T08:09:09;31.77;;;17.00;;
9771;SDS011;4925;52.588;13.370;2024-03-08T08:11:43;29.80;;;17.03;;
9771;SDS011;4925;52.588;13.370;2024-03-08T08:14:09;29.40;;;17.03;;
9771;SDS011;4925;52.588;13.370;2024-03-08T08:16:37;27.23;;;16.57;;
9771;SDS011;4925;52.588;13.370;2024-03-08T08:19:06;28.37;;;16.23;;
9771;SDS011;4925;52.588;13.370;2024-03-08T08:21:35;25.10;;;15.27;;
9771;SDS011;4925;52.588;13.370;2024-03-08T08:24:03;25.83;;;16.03;;
9771;SDS011;4925;52.588;13.370;2024-03-08T08:26:31;26.93;;;16.33;;
9771;SDS011;4925;52.588;13.370;2024-03-08T08:28:57;23.60;;;15.00;;
9771;SDS011;4925;52.588;13.370;2024-03-08T08:31:24;26.73;;;16.07;;
9771;SDS011;4925;52.588;13.370;2024-03-08T08:33:51;24.70;;;16.03;;
9771;SDS011;4925;52.588;13.370;2024-03-08T08:36:23;26.83;;;15.33;;
9771;SDS011;4925;52.588;13.370;2024-03-08T08:38:54;27.50;;;15.57;;
9771;SDS011;4925;52.588;13.370;2024-03-08T08:41:23;23.87;;;15.73;;
9771;SDS011;4925;52.588;13.370;2024-03-08T08:43:49;23.07;;;14.43;;
9771;SDS011;4925;52.588;13.370;2024-03-08T08:46:18;25.20;;;16.07;;
9771;SDS011;4925;52.588;13.370;2024-03-08T08:48:44;26.60;;;15.27;;
9771;SDS011;4925;52.588;13.370;2024-03-08T08:51:12;25.10;;;14.20;;
9771;SDS011;4925;52.588;13.370;2024-03-08T08:53:38;24.20;;;15.10;;
9771;SDS011;4925;52.588;13.370;2024-03-08T08:56:12;23.23;;;15.43;;
9771;SDS011;4925;52.588;13.370;2024-03-08T08:58:39;23.03;;;13.10;;
9771;SDS011;4925;52.588;13.370;2024-03-08T09:01:07;24.40;;;15.23;;
9771;SDS011;4925;52.588;13.370;2024-03-08T09:03:36;24.27;;;15.23;;
9771;SDS011;4925;52.588;13.370;2024-03-08T09:06:05;24.20;;;14.93;;
9771;SDS011;4925;52.588;13.370;2024-03-08T09:08:35;26.30;;;14.77;;
9771;SDS011;4925;52.588;13.370;2024-03-08T09:11:01;23.20;;;14.63;;
9771;SDS011;4925;52.588;13.370;2024-03-08T09:13:26;23.07;;;14.77;;
9771;SDS011;4925;52.588;13.370;2024-03-08T09:15:53;22.40;;;14.70;;
9771;SDS011;4925;52.588;13.370;2024-03-08T09:18:19;23.50;;;14.30;;
9771;SDS011;4925;52.588;13.370;2024-03-08T09:20:45;22.10;;;14.07;;
9771;SDS011;4925;52.588;13.370;2024-03-08T09:23:12;20.37;;;13.63;;
9771;SDS011;4925;52.588;13.370;2024-03-08T09:25:38;21.77;;;14.43;;
9771;SDS011;4925;52.588;13.370;2024-03-08T09:28:03;23.47;;;14.17;;
9771;SDS011;4925;52.588;13.370;2024-03-08T09:30:31;22.57;;;14.10;;
9771;SDS011;4925;52.588;13.370;2024-03-08T09:32:56;25.27;;;15.97;;
9771;SDS011;4925;52.588;13.370;2024-03-08T09:35:22;25.23;;;15.07;;
9771;SDS011;4925;52.588;13.370;2024-03-08T09:37:48;22.67;;;14.00;;
9771;SDS011;4925;52.588;13.370;2024-03-08T09:40:16;21.03;;;14.13;;
9771;SDS011;4925;52.588;13.370;2024-03-08T09:42:45;23.50;;;15.23;;
9771;SDS011;4925;52.588;13.370;2024-03-08T09:45:12;24.67;;;14.30;;
9771;SDS011;4925;52.588;13.370;2024-03-08T09:47:41;23.43;;;14.70;;
9771;SDS011;4925;52.588;13.370;2024-03-08T09:50:08;25.53;;;15.00;;
9771;SDS011;4925;52.588;13.370;2024-03-08T09:52:40;25.63;;;15.53;;
9771;SDS011;4925;52.588;13.370;2024-03-08T09:55:10;30.40;;;15.97;;
9771;SDS011;4925;52.588;13.370;2024-03-08T09:57:41;25.10;;;15.33;;
9771;SDS011;4925;52.588;13.370;2024-03-08T10:00:27;25.07;;;15.33;;
9771;SDS011;4925;52.588;13.370;2024-03-08T10:02:53;23.10;;;14.47;;
9771;SDS011;4925;52.588;13.370;2024-03-08T10:05:18;24.03;;;15.50;;
9771;SDS011;4925;52.588;13.370;2024-03-08T10:07:47;22.00;;;14.50;;
9771;SDS011;4925;52.588;13.370;2024-03-08T10:10:12;23.47;;;14.77;;
9771;SDS011;4925;52.588;13.370;2024-03-08T10:12:38;19.40;;;14.20;;
9771;SDS011;4925;52.588;13.370;2024-03-08T10:15:07;22.87;;;14.17;;
9771;SDS011;4925;52.588;13.370;2024-03-08T10:17:34;21.03;;;12.73;;
9771;SDS011;4925;52.588;13.370;2024-03-08T10:20:00;21.40;;;13.77;;
9771;SDS011;4925;52.588;13.370;2024-03-08T10:22:26;20.07;;;12.33;;
9771;SDS011;4925;52.588;13.370;2024-03-08T10:24:51;20.10;;;13.00;;
9771;SDS011;4925;52.588;13.370;2024-03-08T10:27:18;23.33;;;12.37;;
9771;SDS011;4925;52.588;13.370;2024-03-08T10:29:48;19.23;;;12.57;;
9771;SDS011;4925;52.588;13.370;2024-03-08T10:32:16;18.43;;;12.73;;
9771;SDS011;4925;52.588;13.370;2024-03-08T10:34:41;20.83;;;13.37;;
9771;SDS011;4925;52.588;13.370;2024-03-08T10:37:11;18.67;;;11.47;;
9771;SDS011;4925;52.588;13.370;2024-03-08T10:39:42;20.07;;;13.27;;
9771;SDS011;4925;52.588;13.370;2024-03-08T10:42:16;25.03;;;13.00;;
9771;SDS011;4925;52.588;13.370;2024-03-08T10:44:58;19.47;;;11.80;;
9771;SDS011;4925;52.588;13.370;2024-03-08T10:47:28;18.47;;;12.27;;
9771;SDS011;4925;52.588;13.370;2024-03-08T10:52:34;17.17;;;11.90;;
9771;SDS011;4925;52.588;13.370;2024-03-08T10:55:01;18.03;;;12.47;;
9771;SDS011;4925;52.588;13.370;2024-03-08T10:57:28;19.03;;;12.10;;
9771;SDS011;4925;52.588;13.370;2024-03-08T10:59:53;21.13;;;12.70;;
9771;SDS011;4925;52.588;13.370;2024-03-08T11:02:21;18.70;;;12.57;;
9771;SDS011;4925;52.588;13.370;2024-03-08T11:04:47;17.17;;;11.53;;
9771;SDS011;4925;52.588;13.370;2024-03-08T11:07:15;18.10;;;11.83;;
9771;SDS011;4925;52.588;13.370;2024-03-08T11:09:45;17.87;;;11.77;;
9771;SDS011;4925;52.588;13.370;2024-03-08T11:12:26;18.60;;;10.93;;
9771;SDS011;4925;52.588;13.370;2024-03-08T11:14:59;17.70;;;11.80;;
9771;SDS011;4925;52.588;13.370;2024-03-08T11:19:58;17.93;;;11.50;;
9771;SDS011;4925;52.588;13.370;2024-03-08T11:22:31;17.07;;;11.40;;
9771;SDS011;4925;52.588;13.370;2024-03-08T11:25:04;22.40;;;11.40;;
9771;SDS011;4925;52.588;13.370;2024-03-08T11:27:35;16.57;;;11.40;;
9771;SDS011;4925;52.588;13.370;2024-03-08T11:30:05;17.17;;;11.60;;
9771;SDS011;4925;52.588;13.370;2024-03-08T11:32:47;15.40;;;10.90;;
9771;SDS011;4925;52.588;13.370;2024-03-08T11:35:20;17.20;;;11.40;;
9771;SDS011;4925;52.588;13.370;2024-03-08T11:37:48;20.93;;;11.37;;
9771;SDS011;4925;52.588;13.370;2024-03-08T11:40:14;19.33;;;11.70;;
9771;SDS011;4925;52.588;13.370;2024-03-08T11:42:48;16.40;;;11.10;;
9771;SDS011;4925;52.588;13.370;2024-03-08T11:45:14;14.17;;;10.30;;
9771;SDS011;4925;52.588;13.370;2024-03-08T11:47:42;16.30;;;11.33;;
9771;SDS011;4925;52.588;13.370;2024-03-08T11:50:14;19.97;;;12.63;;
9771;SDS011;4925;52.588;13.370;2024-03-08T11:52:40;19.90;;;13.10;;
9771;SDS011;4925;52.588;13.370;2024-03-08T11:55:08;15.00;;;11.33;;
9771;SDS011;4925;52.588;13.370;2024-03-08T11:57:34;17.93;;;12.20;;
9771;SDS011;4925;52.588;13.370;2024-03-08T11:59:59;18.03;;;13.03;;
9771;SDS011;4925;52.588;13.370;2024-03-08T12:02:31;16.13;;;10.27;;
9771;SDS011;4925;52.588;13.370;2024-03-08T12:05:03;18.90;;;12.43;;
9771;SDS011;4925;52.588;13.370;2024-03-08T12:07:34;16.73;;;12.10;;
9771;SDS011;4925;52.588;13.370;2024-03-08T12:10:19;16.37;;;11.40;;
9771;SDS011;4925;52.588;13.370;2024-03-08T12:12:47;18.70;;;11.50;;
9771;SDS011;4925;52.588;13.370;2024-03-08T12:15:17;21.90;;;11.63;;
9771;SDS011;4925;52.588;13.370;2024-03-08T12:17:48;16.27;;;11.10;;
9771;SDS011;4925;52.588;13.370;2024-03-08T12:20:19;17.83;;;11.17;;
9771;SDS011;4925;52.588;13.370;2024-03-08T12:22:49;16.70;;;11.30;;
9771;SDS011;4925;52.588;13.370;2024-03-08T12:25:17;15.90;;;11.70;;
9771;SDS011;4925;52.588;13.370;2024-03-08T12:27:43;17.87;;;12.23;;
9771;SDS011;4925;52.588;13.370;2024-03-08T12:30:22;15.57;;;11.40;;
9771;SDS011;4925;52.588;13.370;2024-03-08T12:32:56;17.63;;;12.10;;
9771;SDS011;4925;52.588;13.370;2024-03-08T12:35:24;18.63;;;12.50;;
9771;SDS011;4925;52.588;13.370;2024-03-08T12:37:58;15.03;;;11.70;;
9771;SDS011;4925;52.588;13.370;2024-03-08T12:42:57;15.83;;;11.50;;
9771;SDS011;4925;52.588;13.370;2024-03-08T12:45:24;15.60;;;11.03;;
9771;SDS011;4925;52.588;13.370;2024-03-08T12:47:51;14.90;;;10.63;;
9771;SDS011;4925;52.588;13.370;2024-03-08T12:50:18;14.30;;;10.33;;
9771;SDS011;4925;52.588;13.370;2024-03-08T12:52:48;15.83;;;10.93;;
9771;SDS011;4925;52.588;13.370;2024-03-08T12:55:14;14.43;;;11.37;;
9771;SDS011;4925;52.588;13.370;2024-03-08T12:57:43;14.43;;;10.50;;
9771;SDS011;4925;52.588;13.370;2024-03-08T13:00:11;22.03;;;14.43;;
9771;SDS011;4925;52.588;13.370;2024-03-08T13:02:45;28.90;;;20.40;;
9771;SDS011;4925;52.588;13.370;2024-03-08T13:05:11;16.50;;;11.63;;
9771;SDS011;4925;52.588;13.370;2024-03-08T13:07:39;24.23;;;11.50;;
9771;SDS011;4925;52.588;13.370;2024-03-08T13:10:14;14.60;;;10.80;;
9771;SDS011;4925;52.588;13.370;2024-03-08T13:12:41;14.20;;;10.30;;
9771;SDS011;4925;52.588;13.370;2024-03-08T13:15:10;14.97;;;10.50;;
9771;SDS011;4925;52.588;13.370;2024-03-08T13:17:40;15.07;;;11.43;;
9771;SDS011;4925;52.588;13.370;2024-03-08T13:20:09;19.83;;;12.80;;
9771;SDS011;4925;52.588;13.370;2024-03-08T13:22:41;15.33;;;12.43;;
9771;SDS011;4925;52.588;13.370;2024-03-08T13:25:07;19.17;;;13.27;;
9771;SDS011;4925;52.588;13.370;2024-03-08T13:27:38;16.63;;;12.10;;
9771;SDS011;4925;52.588;13.370;2024-03-08T13:30:10;17.30;;;12.93;;
9771;SDS011;4925;52.588;13.370;2024-03-08T13:32:41;18.77;;;12.23;;
9771;SDS011;4925;52.588;13.370;2024-03-08T13:35:11;16.03;;;11.60;;
9771;SDS011;4925;52.588;13.370;2024-03-08T13:37:39;19.60;;;12.20;;
9771;SDS011;4925;52.588;13.370;2024-03-08T13:40:06;16.27;;;12.80;;
9771;SDS011;4925;52.588;13.370;2024-03-08T13:42:37;16.57;;;11.27;;
9771;SDS011;4925;52.588;13.370;2024-03-08T13:45:04;17.63;;;11.97;;
9771;SDS011;4925;52.588;13.370;2024-03-08T13:47:40;14.40;;;12.20;;
9771;SDS011;4925;52.588;13.370;2024-03-08T13:50:07;18.03;;;13.47;;
9771;SDS011;4925;52.588;13.370;2024-03-08T13:52:37;18.80;;;12.53;;
9771;SDS011;4925;52.588;13.370;2024-03-08T13:55:03;19.57;;;13.20;;
9771;SDS011;4925;52.588;13.370;2024-03-08T13:57:31;29.70;;;21.77;;
9771;SDS011;4925;52.588;13.370;2024-03-08T13:59:58;19.90;;;14.67;;
9771;SDS011;4925;52.588;13.370;2024-03-08T14:02:24;16.10;;;12.67;;
9771;SDS011;4925;52.588;13.370;2024-03-08T14:04:56;16.73;;;13.43;;
9771;SDS011;4925;52.588;13.370;2024-03-08T14:07:22;18.73;;;12.93;;
9771;SDS011;4925;52.588;13.370;2024-03-08T14:09:48;16.93;;;12.97;;
9771;SDS011;4925;52.588;13.370;2024-03-08T14:12:18;19.90;;;13.60;;
9771;SDS011;4925;52.588;13.370;2024-03-08T14:14:45;20.57;;;12.63;;
9771;SDS011;4925;52.588;13.370;2024-03-08T14:17:11;20.63;;;14.17;;
9771;SDS011;4925;52.588;13.370;2024-03-08T14:19:41;19.43;;;12.90;;
9771;SDS011;4925;52.588;13.370;2024-03-08T14:22:07;19.13;;;12.67;;
9771;SDS011;4925;52.588;13.370;2024-03-08T14:24:36;17.93;;;12.20;;
9771;SDS011;4925;52.588;13.370;2024-03-08T14:27:02;18.87;;;12.60;;
9771;SDS011;4925;52.588;13.370;2024-03-08T14:29:29;14.97;;;12.00;;
9771;SDS011;4925;52.588;13.370;2024-03-08T14:31:57;18.17;;;12.50;;
9771;SDS011;4925;52.588;13.370;2024-03-08T14:34:27;18.50;;;12.17;;
9771;SDS011;4925;52.588;13.370;2024-03-08T14:36:54;18.10;;;13.27;;
9771;SDS011;4925;52.588;13.370;2024-03-08T14:39:20;16.77;;;11.67;;
9771;SDS011;4925;52.588;13.370;2024-03-08T14:41:49;17.43;;;11.67;;
9771;SDS011;4925;52.588;13.370;2024-03-08T14:44:18;18.87;;;11.97;;
9771;SDS011;4925;52.588;13.370;2024-03-08T14:46:47;15.47;;;11.80;;